createdAt,value
2023-02-18T00:01:36.500Z,1.75
2023-02-18T00:04:05.100Z,1.33
2023-02-18T00:06:36.095Z,1.50
2023-02-18T00:09:04.991Z,1.40
2023-02-18T00:11:34.823Z,1.60
2023-02-18T00:14:04.592Z,1.25
2023-02-18T00:16:33.039Z,1.80
2023-02-18T00:19:05.880Z,1.50
2023-02-18T00:21:34.821Z,1.20
2023-02-18T00:24:03.035Z,1.70
2023-02-18T00:26:31.753Z,1.65
2023-02-18T00:29:00.129Z,1.55
2023-02-18T00:31:31.392Z,1.52
2023-02-18T00:34:00.669Z,1.70
2023-02-18T00:36:30.128Z,1.55
2023-02-18T00:39:01.552Z,1.73
2023-02-18T00:41:31.149Z,1.70
2023-02-18T00:44:00.030Z,1.70
2023-02-18T00:46:30.205Z,1.30
2023-02-18T00:48:59.132Z,1.45
2023-02-18T00:51:28.422Z,1.63
2023-02-18T00:53:57.521Z,1.88
2023-02-18T00:56:25.822Z,1.95
2023-02-18T00:58:54.979Z,1.70
2023-02-18T01:01:24.667Z,1.55
2023-02-18T01:03:52.922Z,1.73
2023-02-18T01:06:22.186Z,2.20
2023-02-18T01:08:51.594Z,1.90
2023-02-18T01:11:20.223Z,1.80
2023-02-18T01:13:48.520Z,1.75
2023-02-18T01:16:17.902Z,1.83
2023-02-18T01:18:45.798Z,1.40
2023-02-18T01:21:12.848Z,1.63
2023-02-18T01:23:42.345Z,1.77
2023-02-18T01:26:11.585Z,1.70
2023-02-18T01:28:42.490Z,1.63
2023-02-18T01:31:13.055Z,2.30
2023-02-18T01:33:42.054Z,1.63
2023-02-18T01:36:11.780Z,1.45
2023-02-18T01:38:40.603Z,1.80
2023-02-18T01:41:08.186Z,1.52
2023-02-18T01:43:36.782Z,1.80
2023-02-18T01:46:05.665Z,1.63
2023-02-18T01:48:34.380Z,1.70
2023-02-18T01:51:10.493Z,1.95
2023-02-18T01:53:52.724Z,1.40
2023-02-18T01:56:26.515Z,1.50
2023-02-18T01:58:59.277Z,1.65
2023-02-18T02:01:28.755Z,1.35
2023-02-18T02:03:58.090Z,1.38
2023-02-18T02:06:26.629Z,1.58
2023-02-18T02:08:59.281Z,1.27
2023-02-18T02:11:53.812Z,1.30
2023-02-18T02:14:56.861Z,1.40
2023-02-18T02:17:55.678Z,1.10
2023-02-18T02:20:39.000Z,1.50
2023-02-18T02:23:42.648Z,1.40
2023-02-18T02:26:27.279Z,1.13
2023-02-18T02:29:25.388Z,1.42
2023-02-18T02:32:25.260Z,1.25
2023-02-18T02:35:11.753Z,1.00
2023-02-18T02:37:56.634Z,1.20
2023-02-18T02:40:46.785Z,1.23
2023-02-18T02:43:22.978Z,0.90
2023-02-18T02:46:09.588Z,1.15
2023-02-18T02:51:15.526Z,1.00
2023-02-18T02:53:44.269Z,1.25
2023-02-18T02:56:15.824Z,0.90
2023-02-18T02:58:45.084Z,0.85
2023-02-18T03:01:39.168Z,1.00
2023-02-18T03:04:08.755Z,1.30
2023-02-18T03:06:50.509Z,0.80
2023-02-18T03:09:24.497Z,0.90
2023-02-18T03:12:12.718Z,1.00
2023-02-18T03:14:54.889Z,1.00
2023-02-18T03:17:26.386Z,1.35
2023-02-18T03:20:02.799Z,1.10
2023-02-18T03:22:36.346Z,0.80
2023-02-18T03:25:06.594Z,1.17
2023-02-18T03:27:59.589Z,0.80
2023-02-18T03:30:33.093Z,1.00
2023-02-18T03:33:06.527Z,1.10
2023-02-18T03:35:37.766Z,1.00
2023-02-18T03:38:14.146Z,0.70
2023-02-18T03:40:42.764Z,1.08
2023-02-18T03:43:10.104Z,0.95
2023-02-18T03:45:37.362Z,0.80
2023-02-18T03:48:07.908Z,0.85
2023-02-18T03:50:36.071Z,0.88
2023-02-18T03:53:02.886Z,0.80
2023-02-18T03:55:32.269Z,0.90
2023-02-18T03:58:00.781Z,0.65
2023-02-18T04:00:29.921Z,1.02
2023-02-18T04:02:57.803Z,0.70
2023-02-18T04:05:25.772Z,0.77
2023-02-18T04:07:55.057Z,0.82
2023-02-18T04:10:24.277Z,0.70
2023-02-18T04:12:53.241Z,0.50
2023-02-18T04:15:21.790Z,0.73
2023-02-18T04:17:50.598Z,0.50
2023-02-18T04:20:18.700Z,0.75
2023-02-18T04:22:46.498Z,0.80
2023-02-18T04:25:15.122Z,0.90
2023-02-18T04:27:44.755Z,0.80
2023-02-18T04:30:12.252Z,0.80
2023-02-18T04:32:39.318Z,0.80
2023-02-18T04:35:07.701Z,0.73
2023-02-18T04:37:35.991Z,1.23
2023-02-18T04:40:04.624Z,0.90
2023-02-18T04:42:32.542Z,1.20
2023-02-18T04:45:01.774Z,1.08
2023-02-18T04:47:31.839Z,1.00
2023-02-18T04:50:01.878Z,1.05
2023-02-18T04:52:30.488Z,1.35
2023-02-18T04:54:59.079Z,1.17
2023-02-18T04:57:28.380Z,0.80
2023-02-18T04:59:56.902Z,1.20
2023-02-18T05:02:25.048Z,1.17
2023-02-18T05:04:54.280Z,1.52
2023-02-18T05:07:23.301Z,1.35
2023-02-18T05:09:51.509Z,1.08
2023-02-18T05:12:18.815Z,1.35
2023-02-18T05:14:46.055Z,1.60
2023-02-18T05:17:13.784Z,1.40
2023-02-18T05:19:42.371Z,1.52
2023-02-18T05:22:11.524Z,1.70
2023-02-18T05:24:40.491Z,1.40
2023-02-18T05:27:09.671Z,1.30
2023-02-18T05:29:37.074Z,1.50
2023-02-18T05:32:04.112Z,1.40
2023-02-18T05:34:32.449Z,1.63
2023-02-18T05:37:02.050Z,1.80
2023-02-18T05:39:30.946Z,1.95
2023-02-18T05:42:01.069Z,2.05
2023-02-18T05:44:32.983Z,2.10
2023-02-18T05:47:09.895Z,1.65
2023-02-18T05:49:40.920Z,1.58
2023-02-18T05:52:10.258Z,1.42
2023-02-18T05:54:38.345Z,1.80
2023-02-18T05:57:08.459Z,1.30
2023-02-18T05:59:35.345Z,1.60
2023-02-18T06:02:04.617Z,1.40
2023-02-18T06:04:34.465Z,1.40
2023-02-18T06:07:03.460Z,1.70
2023-02-18T06:09:32.020Z,1.55
2023-02-18T06:11:59.787Z,1.60
2023-02-18T06:14:29.246Z,1.58
2023-02-18T06:16:58.115Z,1.55
2023-02-18T06:19:25.775Z,1.63
2023-02-18T06:21:54.636Z,2.00
2023-02-18T06:24:29.481Z,1.77
2023-02-18T06:26:59.521Z,1.75
2023-02-18T06:29:27.213Z,2.20
2023-02-18T06:31:55.985Z,1.88
2023-02-18T06:34:25.649Z,1.88
2023-02-18T06:36:54.223Z,2.17
2023-02-18T06:39:23.340Z,2.13
2023-02-18T06:41:50.197Z,1.85
2023-02-18T06:44:17.865Z,1.85
2023-02-18T06:46:47.613Z,2.08
2023-02-18T06:49:16.256Z,1.80
2023-02-18T06:51:45.833Z,1.98
2023-02-18T06:54:13.309Z,2.38
2023-02-18T06:56:42.602Z,2.20
2023-02-18T06:59:10.464Z,2.25
2023-02-18T07:01:38.247Z,1.92
2023-02-18T07:04:06.970Z,2.40
2023-02-18T07:06:35.809Z,2.30
2023-02-18T07:09:03.979Z,2.42
2023-02-18T07:11:32.569Z,2.08
2023-02-18T07:14:03.603Z,1.73
2023-02-18T07:16:31.893Z,2.47
2023-02-18T07:18:59.315Z,2.22
2023-02-18T07:21:28.229Z,2.30
2023-02-18T07:23:56.850Z,2.08
2023-02-18T07:26:24.526Z,2.30
2023-02-18T07:28:51.630Z,2.08
2023-02-18T07:31:20.272Z,2.15
2023-02-18T07:33:48.976Z,2.20
2023-02-18T07:36:19.872Z,2.40
2023-02-18T07:38:48.551Z,1.95
2023-02-18T07:41:20.656Z,2.75
2023-02-18T07:43:49.419Z,2.00
2023-02-18T07:46:19.557Z,1.98
2023-02-18T07:48:48.952Z,1.92
2023-02-18T07:51:16.556Z,1.92
2023-02-18T07:53:47.045Z,1.90
2023-02-18T07:56:15.657Z,1.60
2023-02-18T07:58:45.701Z,1.80
2023-02-18T08:01:15.237Z,1.83
2023-02-18T08:03:45.495Z,2.05
2023-02-18T08:06:25.412Z,2.47
2023-02-18T08:08:54.324Z,2.30
2023-02-18T08:11:22.166Z,1.83
2023-02-18T08:13:50.881Z,2.25
2023-02-18T08:16:22.632Z,2.05
2023-02-18T08:18:53.433Z,2.25
2023-02-18T08:21:23.192Z,2.15
2023-02-18T08:23:52.184Z,2.13
2023-02-18T08:26:22.245Z,2.67
2023-02-18T08:28:51.094Z,2.28
2023-02-18T08:31:26.194Z,2.15
2023-02-18T08:33:57.106Z,2.60
2023-02-18T08:36:24.926Z,2.55
2023-02-18T08:38:53.637Z,2.60
2023-02-18T08:41:23.228Z,2.47
2023-02-18T08:43:51.761Z,2.25
2023-02-18T08:46:25.432Z,2.30
2023-02-18T08:49:03.131Z,2.10
2023-02-18T08:51:32.143Z,2.50
2023-02-18T08:54:00.126Z,2.15
2023-02-18T08:56:30.028Z,2.38
2023-02-18T08:59:00.664Z,2.08
2023-02-18T09:01:29.508Z,2.13
2023-02-18T09:04:00.059Z,1.83
2023-02-18T09:06:28.784Z,2.03
2023-02-18T09:08:57.198Z,1.60
2023-02-18T09:11:24.965Z,1.38
2023-02-18T09:13:53.076Z,1.38
2023-02-18T09:16:21.168Z,1.52
2023-02-18T09:18:50.130Z,1.60
2023-02-18T09:21:21.375Z,1.48
2023-02-18T09:23:51.814Z,1.77
2023-02-18T09:26:24.154Z,1.65
2023-02-18T09:28:54.948Z,1.65
2023-02-18T09:31:25.951Z,1.10
2023-02-18T09:33:57.070Z,1.10
2023-02-18T09:36:26.136Z,1.27
2023-02-18T09:38:55.859Z,1.27
2023-02-18T09:41:22.841Z,0.90
2023-02-18T09:43:54.492Z,1.17
2023-02-18T09:46:30.532Z,0.80
2023-02-18T09:49:02.532Z,1.00
2023-02-18T09:51:31.947Z,1.10
2023-02-18T09:54:01.105Z,0.73
2023-02-18T09:56:32.345Z,0.88
2023-02-18T09:59:06.543Z,0.77
2023-02-18T10:01:39.834Z,1.10
2023-02-18T10:04:16.053Z,0.90
2023-02-18T10:06:46.335Z,0.90
2023-02-18T10:09:21.991Z,0.82
2023-02-18T10:11:56.119Z,1.20
2023-02-18T10:14:26.937Z,0.73
2023-02-18T10:16:55.775Z,0.80
2023-02-18T10:19:41.196Z,0.80
2023-02-18T10:22:14.691Z,0.77
2023-02-18T10:25:03.947Z,0.95
2023-02-18T10:27:35.590Z,0.82
2023-02-18T10:30:25.585Z,0.80
2023-02-18T10:33:03.064Z,0.70
2023-02-18T10:35:33.973Z,0.80
2023-02-18T10:38:09.926Z,0.90
2023-02-18T10:43:53.848Z,0.70
2023-02-18T10:46:38.784Z,0.98
2023-02-18T10:49:22.419Z,1.17
2023-02-18T10:51:53.655Z,0.68
2023-02-18T10:54:28.155Z,1.05
2023-02-18T10:57:00.281Z,1.00
2023-02-18T10:59:34.859Z,0.82
2023-02-18T11:02:13.501Z,0.95
2023-02-18T11:04:46.179Z,0.90
2023-02-18T11:07:19.560Z,0.60
2023-02-18T11:09:51.767Z,0.98
2023-02-18T11:12:40.195Z,1.08
2023-02-18T11:15:18.288Z,0.95
2023-02-18T11:17:49.133Z,0.85
2023-02-18T11:20:33.913Z,0.80
2023-02-18T11:23:21.245Z,0.73
2023-02-18T11:26:06.279Z,0.90
2023-02-18T11:28:42.239Z,0.60
2023-02-18T11:31:19.661Z,0.60
2023-02-18T11:34:01.037Z,0.70
2023-02-18T11:36:33.181Z,0.77
2023-02-18T11:39:06.949Z,0.60
2023-02-18T11:41:39.117Z,0.70
2023-02-18T11:44:23.162Z,0.70
2023-02-18T11:47:07.432Z,0.85
2023-02-18T11:49:36.305Z,0.60
2023-02-18T11:52:06.466Z,0.70
2023-02-18T11:54:36.773Z,0.55
2023-02-18T11:57:11.185Z,0.85
2023-02-18T11:59:41.944Z,0.90
2023-02-18T12:02:10.999Z,0.68
2023-02-18T12:04:58.774Z,0.82
2023-02-18T12:07:34.859Z,0.93
2023-02-18T12:10:15.541Z,0.60
2023-02-18T12:13:00.231Z,0.65
2023-02-18T12:15:42.993Z,0.50
2023-02-18T12:18:42.912Z,0.55
2023-02-18T12:21:46.231Z,0.52
2023-02-18T12:24:35.567Z,0.63
2023-02-18T12:27:18.551Z,0.60
2023-02-18T12:29:55.606Z,0.73
2023-02-18T12:32:40.628Z,0.50
2023-02-18T12:35:11.136Z,0.60
2023-02-18T12:38:07.358Z,0.80
2023-02-18T12:40:51.307Z,0.50
2023-02-18T12:43:50.675Z,0.80
2023-02-18T12:46:48.225Z,0.63
2023-02-18T12:49:26.761Z,0.70
2023-02-18T12:52:11.904Z,0.75
2023-02-18T12:54:57.869Z,0.65
2023-02-18T12:57:48.320Z,0.38
2023-02-18T13:00:32.228Z,0.63
2023-02-18T13:03:20.408Z,0.57
2023-02-18T13:06:14.690Z,0.80
2023-02-18T13:08:58.513Z,0.70
2023-02-18T13:11:48.038Z,0.50
2023-02-18T13:14:21.635Z,0.70
2023-02-18T13:16:55.514Z,0.70
2023-02-18T13:19:28.815Z,0.75
2023-02-18T13:22:01.841Z,0.93
2023-02-18T13:24:39.936Z,0.80
2023-02-18T13:27:42.669Z,0.52
2023-02-18T13:30:38.058Z,0.68
2023-02-18T13:33:36.147Z,0.65
2023-02-18T13:36:17.252Z,1.05
2023-02-18T13:38:56.760Z,0.50
2023-02-18T13:41:27.211Z,0.70
2023-02-18T13:43:56.377Z,0.32
2023-02-18T13:46:25.478Z,0.60
2023-02-18T13:49:07.843Z,0.60
2023-02-18T13:51:53.626Z,0.63
2023-02-18T13:54:47.578Z,0.57
2023-02-18T13:57:21.582Z,0.60
2023-02-18T13:59:58.354Z,0.40
2023-02-18T14:02:28.474Z,0.65
2023-02-18T14:04:59.182Z,0.47
2023-02-18T14:07:39.916Z,0.57
2023-02-18T14:10:27.185Z,0.60
2023-02-18T14:13:20.253Z,0.70
2023-02-18T14:15:55.060Z,0.45
2023-02-18T14:18:32.209Z,0.52
2023-02-18T14:21:23.411Z,0.47
2023-02-18T14:24:09.358Z,0.60
2023-02-18T14:26:45.126Z,0.50
2023-02-18T14:29:23.850Z,0.50
2023-02-18T14:31:57.214Z,0.60
2023-02-18T14:34:26.335Z,0.60
2023-02-18T14:37:09.979Z,0.60
2023-02-18T14:40:02.482Z,0.40
2023-02-18T14:43:00.791Z,0.40
2023-02-18T14:46:03.993Z,0.55
2023-02-18T14:48:54.410Z,0.55
2023-02-18T14:51:27.378Z,0.60
2023-02-18T14:53:56.674Z,0.30
2023-02-18T14:56:26.459Z,0.40
2023-02-18T14:59:01.136Z,0.35
2023-02-18T15:01:32.816Z,0.30
2023-02-18T15:04:03.311Z,0.45
2023-02-18T15:06:35.531Z,0.90
2023-02-18T15:09:16.548Z,0.47
2023-02-18T15:11:51.178Z,0.30
2023-02-18T15:14:24.796Z,0.50
2023-02-18T15:16:54.352Z,0.60
2023-02-18T15:19:26.788Z,0.40
2023-02-18T15:21:59.424Z,0.68
2023-02-18T15:24:35.942Z,0.63
2023-02-18T15:27:13.205Z,0.50
2023-02-18T15:29:42.879Z,0.80
2023-02-18T15:32:28.525Z,0.45
2023-02-18T15:35:03.705Z,0.30
2023-02-18T15:37:35.634Z,0.60
2023-02-18T15:40:05.469Z,0.38
2023-02-18T15:42:37.176Z,0.40
2023-02-18T15:45:15.698Z,0.70
2023-02-18T15:47:46.685Z,0.52
2023-02-18T15:50:22.054Z,0.65
2023-02-18T15:52:51.684Z,0.50
2023-02-18T15:55:35.144Z,0.50
2023-02-18T15:58:08.434Z,0.47
2023-02-18T16:00:42.791Z,0.77
2023-02-18T16:03:21.386Z,0.50
2023-02-18T16:05:50.009Z,0.60
2023-02-18T16:08:27.990Z,0.60
2023-02-18T16:11:04.957Z,0.47
2023-02-18T16:13:35.358Z,0.82
2023-02-18T16:16:04.196Z,0.50
2023-02-18T16:18:42.492Z,0.65
2023-02-18T16:21:34.007Z,0.60
2023-02-18T16:24:05.159Z,0.50
2023-02-18T16:26:44.224Z,0.70
2023-02-18T16:29:16.740Z,0.75
2023-02-18T16:31:45.329Z,0.60
2023-02-18T16:34:14.819Z,0.70
2023-02-18T16:37:02.984Z,0.80
2023-02-18T16:39:36.462Z,0.60
2023-02-18T16:42:10.557Z,1.17
2023-02-18T16:44:39.532Z,0.90
2023-02-18T16:47:10.435Z,0.95
2023-02-18T16:49:40.727Z,0.90
2023-02-18T16:52:11.378Z,0.80
2023-02-18T16:54:39.480Z,0.90
2023-02-18T16:57:07.758Z,0.80
2023-02-18T16:59:35.463Z,0.70
2023-02-18T17:02:04.117Z,0.77
2023-02-18T17:04:32.481Z,0.60
2023-02-18T17:07:00.797Z,0.70
2023-02-18T17:09:29.179Z,0.60
2023-02-18T17:11:58.204Z,0.85
2023-02-18T17:14:27.101Z,0.57
2023-02-18T17:16:56.320Z,0.55
2023-02-18T17:19:24.241Z,1.05
2023-02-18T17:21:52.641Z,0.75
2023-02-18T17:24:20.160Z,0.90
2023-02-18T17:26:48.246Z,0.93
2023-02-18T17:29:18.894Z,0.90
2023-02-18T17:31:50.608Z,0.73
2023-02-18T17:34:27.955Z,0.50
2023-02-18T17:36:57.823Z,0.80
2023-02-18T17:39:26.856Z,0.85
2023-02-18T17:41:55.998Z,0.50
2023-02-18T17:44:28.828Z,0.77
2023-02-18T17:46:58.109Z,0.80
2023-02-18T17:49:27.302Z,0.82
2023-02-18T17:51:57.275Z,0.73
2023-02-18T17:54:28.297Z,0.70
2023-02-18T17:56:57.367Z,0.80
2023-02-18T17:59:25.629Z,0.80
2023-02-18T18:01:55.064Z,0.90
2023-02-18T18:04:24.175Z,1.00
2023-02-18T18:06:52.248Z,0.80
2023-02-18T18:09:20.438Z,0.75
2023-02-18T18:11:48.124Z,0.77
2023-02-18T18:14:16.253Z,0.77
2023-02-18T18:16:44.145Z,0.80
2023-02-18T18:19:12.755Z,1.05
2023-02-18T18:21:42.049Z,0.80
2023-02-18T18:24:12.924Z,0.90
2023-02-18T18:26:43.790Z,0.90
2023-02-18T18:29:13.087Z,0.73
2023-02-18T18:31:45.560Z,0.98
2023-02-18T18:34:17.198Z,0.90
2023-02-18T18:36:45.901Z,1.00
2023-02-18T18:39:14.403Z,0.73
2023-02-18T18:41:42.096Z,0.98
2023-02-18T18:44:12.846Z,1.27
2023-02-18T18:46:40.952Z,0.90
2023-02-18T18:49:10.304Z,0.70
2023-02-18T18:51:39.528Z,0.80
2023-02-18T18:54:06.736Z,0.90
2023-02-18T18:56:35.778Z,0.90
2023-02-18T18:59:09.521Z,0.80
2023-02-18T19:01:38.675Z,1.00
2023-02-18T19:04:07.534Z,1.10
2023-02-18T19:06:36.243Z,0.95
2023-02-18T19:09:03.142Z,0.90
2023-02-18T19:11:32.027Z,1.05
2023-02-18T19:13:59.800Z,1.00
2023-02-18T19:16:37.860Z,0.90
2023-02-18T19:19:05.296Z,0.90
2023-02-18T19:21:34.580Z,1.23
2023-02-18T19:24:03.142Z,1.17
2023-02-18T19:26:31.822Z,1.13
2023-02-18T19:28:59.469Z,1.08
2023-02-18T19:31:26.877Z,1.02
2023-02-18T19:33:54.611Z,0.95
2023-02-18T19:36:24.003Z,1.30
2023-02-18T19:38:52.111Z,1.20
2023-02-18T19:41:21.395Z,1.10
2023-02-18T19:43:48.515Z,1.10
2023-02-18T19:46:18.381Z,1.65
2023-02-18T19:48:50.941Z,1.08
2023-02-18T19:51:19.688Z,1.00
2023-02-18T19:53:49.987Z,1.30
2023-02-18T19:56:17.192Z,1.20
2023-02-18T19:58:44.581Z,1.40
2023-02-18T20:01:14.660Z,1.17
2023-02-18T20:03:43.479Z,0.90
2023-02-18T20:06:21.059Z,0.98
2023-02-18T20:08:49.901Z,1.13
2023-02-18T20:11:18.618Z,1.10
2023-02-18T20:13:49.493Z,0.90
2023-02-18T20:16:18.364Z,1.13
2023-02-18T20:18:47.130Z,1.10
2023-02-18T20:21:16.125Z,1.52
2023-02-18T20:23:44.979Z,1.23
2023-02-18T20:26:15.630Z,1.27
2023-02-18T20:28:43.755Z,0.70
2023-02-18T20:31:13.814Z,1.13
2023-02-18T20:33:43.430Z,1.00
2023-02-18T20:36:13.767Z,1.10
2023-02-18T20:38:41.455Z,0.88
2023-02-18T20:41:11.955Z,1.05
2023-02-18T20:43:40.364Z,0.82
2023-02-18T20:46:11.924Z,1.05
2023-02-18T20:48:40.016Z,0.90
2023-02-18T20:51:11.190Z,0.68
2023-02-18T20:53:40.662Z,1.02
2023-02-18T20:56:09.306Z,1.10
2023-02-18T20:58:37.841Z,0.90
2023-02-18T21:01:10.088Z,1.20
2023-02-18T21:03:40.842Z,1.08
2023-02-18T21:06:14.257Z,1.10
2023-02-18T21:08:45.778Z,1.13
2023-02-18T21:11:18.183Z,1.00
2023-02-18T21:13:49.117Z,1.00
2023-02-18T21:16:20.546Z,1.20
2023-02-18T21:18:49.191Z,1.10
2023-02-18T21:21:20.672Z,1.08
2023-02-18T21:23:49.472Z,1.23
2023-02-18T21:26:22.082Z,1.13
2023-02-18T21:28:53.103Z,1.08
2023-02-18T21:31:25.326Z,1.20
2023-02-18T21:33:53.712Z,0.93
2023-02-18T21:36:23.631Z,0.98
2023-02-18T21:38:54.984Z,1.10
2023-02-18T21:41:24.504Z,1.30
2023-02-18T21:43:52.856Z,0.80
2023-02-18T21:46:23.450Z,1.02
2023-02-18T21:49:09.113Z,0.95
2023-02-18T21:51:56.701Z,1.23
2023-02-18T21:54:31.170Z,1.20
2023-02-18T21:57:01.761Z,1.30
2023-02-18T21:59:31.407Z,1.75
2023-02-18T22:02:01.084Z,1.50
2023-02-18T22:04:31.576Z,1.30
2023-02-18T22:07:00.229Z,1.42
2023-02-18T22:09:28.690Z,1.55
2023-02-18T22:11:56.178Z,1.80
2023-02-18T22:14:24.801Z,1.33
2023-02-18T22:16:54.282Z,1.60
2023-02-18T22:19:22.337Z,1.50
2023-02-18T22:21:51.006Z,1.58
2023-02-18T22:24:20.437Z,1.50
2023-02-18T22:26:51.220Z,1.73
2023-02-18T22:29:21.767Z,1.52
2023-02-18T22:31:53.714Z,1.60
2023-02-18T22:34:22.472Z,1.52
2023-02-18T22:36:51.565Z,1.58
2023-02-18T22:39:18.556Z,1.35
2023-02-18T22:41:46.760Z,1.55
2023-02-18T22:44:16.130Z,1.48
2023-02-18T22:46:45.034Z,1.13
2023-02-18T22:49:13.819Z,1.60
2023-02-18T22:51:44.437Z,1.70
2023-02-18T22:54:15.963Z,1.48
2023-02-18T22:56:45.918Z,2.00
2023-02-18T22:59:16.905Z,1.52
2023-02-18T23:01:50.926Z,1.80
2023-02-18T23:04:20.060Z,1.77
2023-02-18T23:06:49.415Z,1.73
2023-02-18T23:09:21.193Z,1.80
2023-02-18T23:11:52.777Z,1.48
2023-02-18T23:14:22.204Z,1.65
2023-02-18T23:17:09.797Z,1.80
2023-02-18T23:19:37.392Z,2.13
2023-02-18T23:22:06.890Z,1.83
2023-02-18T23:24:37.570Z,1.85
2023-02-18T23:27:05.782Z,1.80
2023-02-18T23:29:32.815Z,2.05
2023-02-18T23:32:00.905Z,2.30
2023-02-18T23:34:30.862Z,2.30
2023-02-18T23:36:58.573Z,2.60
2023-02-18T23:39:27.388Z,2.15
2023-02-18T23:41:56.069Z,2.50
2023-02-18T23:44:25.378Z,2.80
2023-02-18T23:46:54.514Z,2.42
2023-02-18T23:49:25.643Z,2.97
2023-02-18T23:51:54.874Z,2.72
2023-02-18T23:54:23.563Z,2.88
2023-02-18T23:56:51.265Z,2.95
2023-02-18T23:59:20.819Z,3.00
